sensor_id;sensor_type;location;lat;lon;timestamp;P1;durP1;ratioP1;P2;durP2;ratioP2
16957;SDS011;8595;52.542;11.974;2022-12-13T00:01:54;53.60;;;26.37;;
16957;SDS011;8595;52.542;11.974;2022-12-13T00:04:22;45.60;;;25.30;;
16957;SDS011;8595;52.542;11.974;2022-12-13T00:06:50;45.40;;;24.33;;
16957;SDS011;8595;52.542;11.974;2022-12-13T00:09:18;47.63;;;25.90;;
16957;SDS011;8595;52.542;11.974;2022-12-13T00:11:45;49.77;;;28.40;;
16957;SDS011;8595;52.542;11.974;2022-12-13T00:14:14;53.43;;;29.07;;
16957;SDS011;8595;52.542;11.974;2022-12-13T00:16:44;53.57;;;27.93;;
16957;SDS011;8595;52.542;11.974;2022-12-13T00:19:12;51.37;;;28.33;;
16957;SDS011;8595;52.542;11.974;2022-12-13T00:21:40;50.77;;;25.50;;
16957;SDS011;8595;52.542;11.974;2022-12-13T00:24:08;52.23;;;28.80;;
16957;SDS011;8595;52.542;11.974;2022-12-13T00:26:35;48.97;;;28.23;;
16957;SDS011;8595;52.542;11.974;2022-12-13T00:29:03;51.17;;;27.63;;
16957;SDS011;8595;52.542;11.974;2022-12-13T00:31:31;47.87;;;25.23;;
16957;SDS011;8595;52.542;11.974;2022-12-13T00:33:59;47.03;;;25.67;;
16957;SDS011;8595;52.542;11.974;2022-12-13T00:36:26;47.53;;;26.07;;
16957;SDS011;8595;52.542;11.974;2022-12-13T00:38:53;47.97;;;24.33;;
16957;SDS011;8595;52.542;11.974;2022-12-13T00:41:26;49.73;;;26.37;;
16957;SDS011;8595;52.542;11.974;2022-12-13T00:43:54;53.40;;;29.23;;
16957;SDS011;8595;52.542;11.974;2022-12-13T00:46:21;52.93;;;28.23;;
16957;SDS011;8595;52.542;11.974;2022-12-13T00:48:49;47.43;;;25.73;;
16957;SDS011;8595;52.542;11.974;2022-12-13T00:51:20;57.63;;;30.63;;
16957;SDS011;8595;52.542;11.974;2022-12-13T00:53:47;52.10;;;28.00;;
16957;SDS011;8595;52.542;11.974;2022-12-13T00:56:15;51.93;;;26.07;;
16957;SDS011;8595;52.542;11.974;2022-12-13T00:58:43;53.27;;;29.00;;
16957;SDS011;8595;52.542;11.974;2022-12-13T01:01:11;52.73;;;28.33;;
16957;SDS011;8595;52.542;11.974;2022-12-13T01:03:39;48.83;;;23.67;;
16957;SDS011;8595;52.542;11.974;2022-12-13T01:06:07;53.87;;;28.00;;
16957;SDS011;8595;52.542;11.974;2022-12-13T01:08:36;46.80;;;25.47;;
16957;SDS011;8595;52.542;11.974;2022-12-13T01:11:03;50.00;;;27.10;;
16957;SDS011;8595;52.542;11.974;2022-12-13T01:13:31;47.77;;;26.87;;
16957;SDS011;8595;52.542;11.974;2022-12-13T01:16:00;49.20;;;25.40;;
16957;SDS011;8595;52.542;11.974;2022-12-13T01:18:27;56.20;;;30.03;;
16957;SDS011;8595;52.542;11.974;2022-12-13T01:20:57;51.83;;;27.13;;
16957;SDS011;8595;52.542;11.974;2022-12-13T01:23:25;46.53;;;24.37;;
16957;SDS011;8595;52.542;11.974;2022-12-13T01:25:53;53.63;;;26.40;;
16957;SDS011;8595;52.542;11.974;2022-12-13T01:28:21;45.13;;;23.63;;
16957;SDS011;8595;52.542;11.974;2022-12-13T01:30:52;52.20;;;28.73;;
16957;SDS011;8595;52.542;11.974;2022-12-13T01:33:20;55.10;;;29.30;;
16957;SDS011;8595;52.542;11.974;2022-12-13T01:35:47;51.40;;;28.73;;
16957;SDS011;8595;52.542;11.974;2022-12-13T01:38:14;54.73;;;26.57;;
16957;SDS011;8595;52.542;11.974;2022-12-13T01:40:42;50.37;;;25.93;;
16957;SDS011;8595;52.542;11.974;2022-12-13T01:43:11;49.63;;;25.33;;
16957;SDS011;8595;52.542;11.974;2022-12-13T01:45:38;52.03;;;28.33;;
16957;SDS011;8595;52.542;11.974;2022-12-13T01:48:06;46.43;;;22.53;;
16957;SDS011;8595;52.542;11.974;2022-12-13T01:50:36;54.57;;;27.43;;
16957;SDS011;8595;52.542;11.974;2022-12-13T01:53:06;49.23;;;26.67;;
16957;SDS011;8595;52.542;11.974;2022-12-13T01:55:37;50.33;;;27.30;;
16957;SDS011;8595;52.542;11.974;2022-12-13T01:58:06;45.90;;;23.53;;
16957;SDS011;8595;52.542;11.974;2022-12-13T02:00:35;40.47;;;22.30;;
16957;SDS011;8595;52.542;11.974;2022-12-13T02:03:02;52.43;;;26.23;;
16957;SDS011;8595;52.542;11.974;2022-12-13T02:05:30;43.07;;;23.30;;
16957;SDS011;8595;52.542;11.974;2022-12-13T02:08:01;42.03;;;23.90;;
16957;SDS011;8595;52.542;11.974;2022-12-13T02:10:29;46.17;;;25.97;;
16957;SDS011;8595;52.542;11.974;2022-12-13T02:12:57;50.73;;;25.30;;
16957;SDS011;8595;52.542;11.974;2022-12-13T02:15:24;46.70;;;25.13;;
16957;SDS011;8595;52.542;11.974;2022-12-13T02:18:10;57.13;;;27.70;;
16957;SDS011;8595;52.542;11.974;2022-12-13T02:20:56;52.70;;;27.23;;
16957;SDS011;8595;52.542;11.974;2022-12-13T02:23:36;60.20;;;28.10;;
16957;SDS011;8595;52.542;11.974;2022-12-13T02:26:31;45.27;;;22.97;;
16957;SDS011;8595;52.542;11.974;2022-12-13T02:29:16;46.60;;;23.10;;
16957;SDS011;8595;52.542;11.974;2022-12-13T02:32:07;55.47;;;27.83;;
16957;SDS011;8595;52.542;11.974;2022-12-13T02:34:41;55.97;;;29.40;;
16957;SDS011;8595;52.542;11.974;2022-12-13T02:37:14;54.30;;;26.67;;
16957;SDS011;8595;52.542;11.974;2022-12-13T02:39:46;55.30;;;25.70;;
16957;SDS011;8595;52.542;11.974;2022-12-13T02:42:18;48.47;;;27.37;;
16957;SDS011;8595;52.542;11.974;2022-12-13T02:44:51;55.90;;;27.50;;
16957;SDS011;8595;52.542;11.974;2022-12-13T02:47:23;54.67;;;24.20;;
16957;SDS011;8595;52.542;11.974;2022-12-13T02:49:53;38.57;;;20.37;;
16957;SDS011;8595;52.542;11.974;2022-12-13T02:52:23;56.47;;;27.57;;
16957;SDS011;8595;52.542;11.974;2022-12-13T02:54:52;44.97;;;22.60;;
16957;SDS011;8595;52.542;11.974;2022-12-13T02:57:27;53.90;;;26.00;;
16957;SDS011;8595;52.542;11.974;2022-12-13T02:59:56;49.93;;;26.00;;
16957;SDS011;8595;52.542;11.974;2022-12-13T03:02:28;46.90;;;22.23;;
16957;SDS011;8595;52.542;11.974;2022-12-13T03:05:08;52.17;;;25.73;;
16957;SDS011;8595;52.542;11.974;2022-12-13T03:08:01;44.47;;;22.10;;
16957;SDS011;8595;52.542;11.974;2022-12-13T03:10:43;56.67;;;26.03;;
16957;SDS011;8595;52.542;11.974;2022-12-13T03:13:21;46.53;;;23.63;;
16957;SDS011;8595;52.542;11.974;2022-12-13T03:16:04;50.83;;;24.53;;
16957;SDS011;8595;52.542;11.974;2022-12-13T03:18:40;47.30;;;22.80;;
16957;SDS011;8595;52.542;11.974;2022-12-13T03:21:09;49.97;;;24.60;;
16957;SDS011;8595;52.542;11.974;2022-12-13T03:23:38;50.73;;;24.53;;
16957;SDS011;8595;52.542;11.974;2022-12-13T03:26:06;49.10;;;26.07;;
16957;SDS011;8595;52.542;11.974;2022-12-13T03:28:37;51.07;;;24.90;;
16957;SDS011;8595;52.542;11.974;2022-12-13T03:31:05;48.10;;;23.67;;
16957;SDS011;8595;52.542;11.974;2022-12-13T03:33:32;42.17;;;21.90;;
16957;SDS011;8595;52.542;11.974;2022-12-13T03:36:00;48.83;;;26.23;;
16957;SDS011;8595;52.542;11.974;2022-12-13T03:38:27;53.87;;;25.33;;
16957;SDS011;8595;52.542;11.974;2022-12-13T03:40:56;46.07;;;23.90;;
16957;SDS011;8595;52.542;11.974;2022-12-13T03:43:25;46.20;;;23.27;;
16957;SDS011;8595;52.542;11.974;2022-12-13T03:45:52;50.73;;;26.37;;
16957;SDS011;8595;52.542;11.974;2022-12-13T03:48:19;54.70;;;28.17;;
16957;SDS011;8595;52.542;11.974;2022-12-13T03:50:47;57.23;;;28.50;;
16957;SDS011;8595;52.542;11.974;2022-12-13T03:53:15;63.07;;;31.90;;
16957;SDS011;8595;52.542;11.974;2022-12-13T03:55:42;54.33;;;25.73;;
16957;SDS011;8595;52.542;11.974;2022-12-13T03:58:08;56.37;;;29.33;;
16957;SDS011;8595;52.542;11.974;2022-12-13T04:00:35;53.53;;;27.60;;
16957;SDS011;8595;52.542;11.974;2022-12-13T04:03:02;66.00;;;31.23;;
16957;SDS011;8595;52.542;11.974;2022-12-13T04:05:29;50.33;;;25.97;;
16957;SDS011;8595;52.542;11.974;2022-12-13T04:07:56;48.13;;;27.67;;
16957;SDS011;8595;52.542;11.974;2022-12-13T04:10:24;53.10;;;27.50;;
16957;SDS011;8595;52.542;11.974;2022-12-13T04:12:51;55.13;;;29.03;;
16957;SDS011;8595;52.542;11.974;2022-12-13T04:15:36;55.87;;;26.07;;
16957;SDS011;8595;52.542;11.974;2022-12-13T04:18:03;62.63;;;29.17;;
16957;SDS011;8595;52.542;11.974;2022-12-13T04:20:30;56.57;;;28.97;;
16957;SDS011;8595;52.542;11.974;2022-12-13T04:22:57;56.37;;;27.57;;
16957;SDS011;8595;52.542;11.974;2022-12-13T04:25:25;66.90;;;30.83;;
16957;SDS011;8595;52.542;11.974;2022-12-13T04:27:52;57.03;;;27.53;;
16957;SDS011;8595;52.542;11.974;2022-12-13T04:30:19;62.60;;;28.50;;
16957;SDS011;8595;52.542;11.974;2022-12-13T04:32:46;57.30;;;28.63;;
16957;SDS011;8595;52.542;11.974;2022-12-13T04:35:13;52.77;;;25.23;;
16957;SDS011;8595;52.542;11.974;2022-12-13T04:37:40;54.07;;;26.20;;
16957;SDS011;8595;52.542;11.974;2022-12-13T04:40:07;54.57;;;27.00;;
16957;SDS011;8595;52.542;11.974;2022-12-13T04:42:36;67.37;;;33.17;;
16957;SDS011;8595;52.542;11.974;2022-12-13T04:45:03;49.87;;;25.50;;
16957;SDS011;8595;52.542;11.974;2022-12-13T04:47:31;59.77;;;27.30;;
16957;SDS011;8595;52.542;11.974;2022-12-13T04:49:58;62.47;;;32.03;;
16957;SDS011;8595;52.542;11.974;2022-12-13T04:52:25;55.17;;;28.37;;
16957;SDS011;8595;52.542;11.974;2022-12-13T04:54:52;57.63;;;30.03;;
16957;SDS011;8595;52.542;11.974;2022-12-13T04:57:18;62.40;;;31.53;;
16957;SDS011;8595;52.542;11.974;2022-12-13T04:59:46;62.33;;;31.10;;
16957;SDS011;8595;52.542;11.974;2022-12-13T05:02:13;72.47;;;30.73;;
16957;SDS011;8595;52.542;11.974;2022-12-13T05:04:40;53.47;;;26.13;;
16957;SDS011;8595;52.542;11.974;2022-12-13T05:07:07;58.90;;;31.87;;
16957;SDS011;8595;52.542;11.974;2022-12-13T05:09:34;65.13;;;32.47;;
16957;SDS011;8595;52.542;11.974;2022-12-13T05:12:01;61.00;;;29.80;;
16957;SDS011;8595;52.542;11.974;2022-12-13T05:14:29;56.60;;;29.20;;
16957;SDS011;8595;52.542;11.974;2022-12-13T05:16:57;58.87;;;28.87;;
16957;SDS011;8595;52.542;11.974;2022-12-13T05:19:25;61.43;;;27.50;;
16957;SDS011;8595;52.542;11.974;2022-12-13T05:21:51;56.83;;;27.70;;
16957;SDS011;8595;52.542;11.974;2022-12-13T05:24:18;51.90;;;26.27;;
16957;SDS011;8595;52.542;11.974;2022-12-13T05:26:45;59.60;;;30.57;;
16957;SDS011;8595;52.542;11.974;2022-12-13T05:29:13;58.80;;;28.57;;
16957;SDS011;8595;52.542;11.974;2022-12-13T05:31:40;53.80;;;25.67;;
16957;SDS011;8595;52.542;11.974;2022-12-13T05:34:08;51.50;;;28.30;;
16957;SDS011;8595;52.542;11.974;2022-12-13T05:36:35;49.50;;;26.10;;
16957;SDS011;8595;52.542;11.974;2022-12-13T05:39:01;51.83;;;24.47;;
16957;SDS011;8595;52.542;11.974;2022-12-13T05:41:30;57.53;;;28.93;;
16957;SDS011;8595;52.542;11.974;2022-12-13T05:43:59;54.67;;;29.80;;
16957;SDS011;8595;52.542;11.974;2022-12-13T05:46:26;63.53;;;32.40;;
16957;SDS011;8595;52.542;11.974;2022-12-13T05:48:52;44.10;;;24.47;;
16957;SDS011;8595;52.542;11.974;2022-12-13T05:51:20;51.90;;;24.53;;
16957;SDS011;8595;52.542;11.974;2022-12-13T05:53:47;55.50;;;27.90;;
16957;SDS011;8595;52.542;11.974;2022-12-13T05:56:14;58.20;;;27.67;;
16957;SDS011;8595;52.542;11.974;2022-12-13T05:58:41;55.87;;;27.93;;
16957;SDS011;8595;52.542;11.974;2022-12-13T06:01:08;57.50;;;28.07;;
16957;SDS011;8595;52.542;11.974;2022-12-13T06:03:37;59.93;;;30.50;;
16957;SDS011;8595;52.542;11.974;2022-12-13T06:06:04;67.33;;;30.87;;
16957;SDS011;8595;52.542;11.974;2022-12-13T06:08:34;64.97;;;33.73;;
16957;SDS011;8595;52.542;11.974;2022-12-13T06:11:02;55.90;;;27.87;;
16957;SDS011;8595;52.542;11.974;2022-12-13T06:13:32;55.57;;;26.23;;
16957;SDS011;8595;52.542;11.974;2022-12-13T06:15:59;64.03;;;31.97;;
16957;SDS011;8595;52.542;11.974;2022-12-13T06:18:28;55.00;;;26.70;;
16957;SDS011;8595;52.542;11.974;2022-12-13T06:20:57;54.40;;;28.57;;
16957;SDS011;8595;52.542;11.974;2022-12-13T06:23:25;63.50;;;30.73;;
16957;SDS011;8595;52.542;11.974;2022-12-13T06:25:54;62.93;;;29.60;;
16957;SDS011;8595;52.542;11.974;2022-12-13T06:28:20;65.70;;;31.97;;
16957;SDS011;8595;52.542;11.974;2022-12-13T06:30:48;64.13;;;28.97;;
16957;SDS011;8595;52.542;11.974;2022-12-13T06:33:16;62.23;;;30.37;;
16957;SDS011;8595;52.542;11.974;2022-12-13T06:35:44;54.80;;;27.30;;
16957;SDS011;8595;52.542;11.974;2022-12-13T06:38:11;66.87;;;32.30;;
16957;SDS011;8595;52.542;11.974;2022-12-13T06:40:38;56.07;;;29.10;;
16957;SDS011;8595;52.542;11.974;2022-12-13T06:43:06;58.97;;;30.67;;
16957;SDS011;8595;52.542;11.974;2022-12-13T06:45:34;60.00;;;31.20;;
16957;SDS011;8595;52.542;11.974;2022-12-13T06:48:04;59.60;;;30.30;;
16957;SDS011;8595;52.542;11.974;2022-12-13T06:50:31;52.13;;;27.70;;
16957;SDS011;8595;52.542;11.974;2022-12-13T06:52:58;58.37;;;30.60;;
16957;SDS011;8595;52.542;11.974;2022-12-13T06:55:24;56.40;;;31.13;;
16957;SDS011;8595;52.542;11.974;2022-12-13T06:57:51;56.77;;;28.20;;
16957;SDS011;8595;52.542;11.974;2022-12-13T07:00:19;64.57;;;31.90;;
16957;SDS011;8595;52.542;11.974;2022-12-13T07:02:50;55.93;;;27.77;;
16957;SDS011;8595;52.542;11.974;2022-12-13T07:05:17;59.03;;;30.80;;
16957;SDS011;8595;52.542;11.974;2022-12-13T07:07:44;64.47;;;30.37;;
16957;SDS011;8595;52.542;11.974;2022-12-13T07:10:11;53.33;;;28.70;;
16957;SDS011;8595;52.542;11.974;2022-12-13T07:12:37;60.60;;;30.83;;
16957;SDS011;8595;52.542;11.974;2022-12-13T07:15:05;59.23;;;33.43;;
16957;SDS011;8595;52.542;11.974;2022-12-13T07:17:34;58.90;;;32.80;;
16957;SDS011;8595;52.542;11.974;2022-12-13T07:20:02;55.53;;;29.83;;
16957;SDS011;8595;52.542;11.974;2022-12-13T07:22:31;61.73;;;32.00;;
16957;SDS011;8595;52.542;11.974;2022-12-13T07:24:58;54.77;;;29.07;;
16957;SDS011;8595;52.542;11.974;2022-12-13T07:27:25;66.90;;;32.53;;
16957;SDS011;8595;52.542;11.974;2022-12-13T07:29:51;52.30;;;30.07;;
16957;SDS011;8595;52.542;11.974;2022-12-13T07:32:18;47.43;;;25.13;;
16957;SDS011;8595;52.542;11.974;2022-12-13T07:34:46;57.67;;;32.10;;
16957;SDS011;8595;52.542;11.974;2022-12-13T07:37:13;55.23;;;28.67;;
16957;SDS011;8595;52.542;11.974;2022-12-13T07:39:40;54.83;;;28.37;;
16957;SDS011;8595;52.542;11.974;2022-12-13T07:42:07;65.63;;;32.70;;
16957;SDS011;8595;52.542;11.974;2022-12-13T07:44:33;55.63;;;29.93;;
16957;SDS011;8595;52.542;11.974;2022-12-13T07:47:00;47.13;;;25.53;;
16957;SDS011;8595;52.542;11.974;2022-12-13T07:49:27;41.90;;;24.63;;
16957;SDS011;8595;52.542;11.974;2022-12-13T07:51:55;45.07;;;23.37;;
16957;SDS011;8595;52.542;11.974;2022-12-13T07:54:22;57.80;;;30.47;;
16957;SDS011;8595;52.542;11.974;2022-12-13T07:56:49;55.77;;;28.83;;
16957;SDS011;8595;52.542;11.974;2022-12-13T07:59:15;59.27;;;28.97;;
16957;SDS011;8595;52.542;11.974;2022-12-13T08:01:42;54.27;;;29.87;;
16957;SDS011;8595;52.542;11.974;2022-12-13T08:04:09;60.63;;;30.67;;
16957;SDS011;8595;52.542;11.974;2022-12-13T08:06:36;44.97;;;24.97;;
16957;SDS011;8595;52.542;11.974;2022-12-13T08:09:05;46.67;;;25.10;;
16957;SDS011;8595;52.542;11.974;2022-12-13T08:11:31;60.77;;;29.37;;
16957;SDS011;8595;52.542;11.974;2022-12-13T08:13:58;58.63;;;28.90;;
16957;SDS011;8595;52.542;11.974;2022-12-13T08:16:25;49.37;;;28.33;;
16957;SDS011;8595;52.542;11.974;2022-12-13T08:18:52;50.73;;;28.03;;
16957;SDS011;8595;52.542;11.974;2022-12-13T08:21:19;50.33;;;27.90;;
16957;SDS011;8595;52.542;11.974;2022-12-13T08:23:45;62.43;;;30.87;;
16957;SDS011;8595;52.542;11.974;2022-12-13T08:26:14;55.40;;;31.53;;
16957;SDS011;8595;52.542;11.974;2022-12-13T08:28:40;53.73;;;28.03;;
16957;SDS011;8595;52.542;11.974;2022-12-13T08:31:08;56.90;;;32.13;;
16957;SDS011;8595;52.542;11.974;2022-12-13T08:33:37;50.57;;;28.33;;
16957;SDS011;8595;52.542;11.974;2022-12-13T08:36:07;59.57;;;30.03;;
16957;SDS011;8595;52.542;11.974;2022-12-13T08:38:34;52.53;;;26.83;;
16957;SDS011;8595;52.542;11.974;2022-12-13T08:41:01;54.23;;;29.30;;
16957;SDS011;8595;52.542;11.974;2022-12-13T08:43:30;49.00;;;24.80;;
16957;SDS011;8595;52.542;11.974;2022-12-13T08:45:57;47.93;;;25.87;;
16957;SDS011;8595;52.542;11.974;2022-12-13T08:48:23;51.17;;;28.90;;
16957;SDS011;8595;52.542;11.974;2022-12-13T08:50:51;47.90;;;26.03;;
16957;SDS011;8595;52.542;11.974;2022-12-13T08:53:18;53.47;;;28.73;;
16957;SDS011;8595;52.542;11.974;2022-12-13T08:55:45;50.77;;;28.67;;
16957;SDS011;8595;52.542;11.974;2022-12-13T08:58:12;51.83;;;28.23;;
16957;SDS011;8595;52.542;11.974;2022-12-13T09:00:40;48.77;;;26.53;;
16957;SDS011;8595;52.542;11.974;2022-12-13T09:03:09;52.37;;;29.43;;
16957;SDS011;8595;52.542;11.974;2022-12-13T09:05:36;47.97;;;27.20;;
16957;SDS011;8595;52.542;11.974;2022-12-13T09:08:03;47.27;;;27.27;;
16957;SDS011;8595;52.542;11.974;2022-12-13T09:10:30;54.23;;;31.20;;
16957;SDS011;8595;52.542;11.974;2022-12-13T09:12:57;46.80;;;25.23;;
16957;SDS011;8595;52.542;11.974;2022-12-13T09:15:25;46.27;;;25.73;;
16957;SDS011;8595;52.542;11.974;2022-12-13T09:17:53;44.83;;;25.73;;
16957;SDS011;8595;52.542;11.974;2022-12-13T09:20:20;51.40;;;26.90;;
16957;SDS011;8595;52.542;11.974;2022-12-13T09:22:47;48.50;;;27.30;;
16957;SDS011;8595;52.542;11.974;2022-12-13T09:25:14;51.97;;;28.20;;
16957;SDS011;8595;52.542;11.974;2022-12-13T09:27:40;53.80;;;32.13;;
16957;SDS011;8595;52.542;11.974;2022-12-13T09:30:08;47.23;;;26.63;;
16957;SDS011;8595;52.542;11.974;2022-12-13T09:32:39;49.50;;;29.63;;
16957;SDS011;8595;52.542;11.974;2022-12-13T09:35:07;51.60;;;30.53;;
16957;SDS011;8595;52.542;11.974;2022-12-13T09:37:34;57.17;;;32.40;;
16957;SDS011;8595;52.542;11.974;2022-12-13T09:40:01;60.17;;;33.27;;
16957;SDS011;8595;52.542;11.974;2022-12-13T09:42:29;62.63;;;33.30;;
16957;SDS011;8595;52.542;11.974;2022-12-13T09:45:03;51.83;;;31.70;;
16957;SDS011;8595;52.542;11.974;2022-12-13T09:47:33;49.20;;;28.83;;
16957;SDS011;8595;52.542;11.974;2022-12-13T09:50:04;54.77;;;32.13;;
16957;SDS011;8595;52.542;11.974;2022-12-13T09:52:35;56.97;;;33.77;;
16957;SDS011;8595;52.542;11.974;2022-12-13T09:55:06;44.67;;;26.67;;
16957;SDS011;8595;52.542;11.974;2022-12-13T09:57:44;48.77;;;27.37;;
16957;SDS011;8595;52.542;11.974;2022-12-13T10:00:12;49.60;;;26.60;;
16957;SDS011;8595;52.542;11.974;2022-12-13T10:02:42;43.73;;;26.37;;
16957;SDS011;8595;52.542;11.974;2022-12-13T10:05:15;43.83;;;24.27;;
16957;SDS011;8595;52.542;11.974;2022-12-13T10:07:55;54.40;;;30.97;;
16957;SDS011;8595;52.542;11.974;2022-12-13T10:10:25;52.27;;;28.23;;
16957;SDS011;8595;52.542;11.974;2022-12-13T10:12:54;48.70;;;26.80;;
16957;SDS011;8595;52.542;11.974;2022-12-13T10:15:28;49.43;;;27.27;;
16957;SDS011;8595;52.542;11.974;2022-12-13T10:17:58;50.80;;;29.83;;
16957;SDS011;8595;52.542;11.974;2022-12-13T10:20:28;45.80;;;24.40;;
16957;SDS011;8595;52.542;11.974;2022-12-13T10:22:56;46.83;;;27.40;;
16957;SDS011;8595;52.542;11.974;2022-12-13T10:25:42;52.40;;;29.80;;
16957;SDS011;8595;52.542;11.974;2022-12-13T10:28:12;51.83;;;29.27;;
16957;SDS011;8595;52.542;11.974;2022-12-13T10:30:45;52.50;;;30.37;;
16957;SDS011;8595;52.542;11.974;2022-12-13T10:33:19;50.50;;;28.53;;
16957;SDS011;8595;52.542;11.974;2022-12-13T10:36:00;45.90;;;25.70;;
16957;SDS011;8595;52.542;11.974;2022-12-13T10:38:38;44.63;;;25.23;;
16957;SDS011;8595;52.542;11.974;2022-12-13T10:44:08;49.40;;;29.97;;
16957;SDS011;8595;52.542;11.974;2022-12-13T10:47:03;38.67;;;23.83;;
16957;SDS011;8595;52.542;11.974;2022-12-13T10:49:39;41.13;;;22.90;;
16957;SDS011;8595;52.542;11.974;2022-12-13T10:52:25;40.57;;;25.73;;
16957;SDS011;8595;52.542;11.974;2022-12-13T10:54:55;35.37;;;23.37;;
16957;SDS011;8595;52.542;11.974;2022-12-13T10:57:22;35.27;;;24.87;;
16957;SDS011;8595;52.542;11.974;2022-12-13T10:59:50;39.13;;;25.73;;
16957;SDS011;8595;52.542;11.974;2022-12-13T11:02:27;39.77;;;25.13;;
16957;SDS011;8595;52.542;11.974;2022-12-13T11:04:57;40.27;;;27.70;;
16957;SDS011;8595;52.542;11.974;2022-12-13T11:07:26;45.10;;;29.97;;
16957;SDS011;8595;52.542;11.974;2022-12-13T11:09:56;33.77;;;25.43;;
16957;SDS011;8595;52.542;11.974;2022-12-13T11:12:23;38.13;;;27.67;;
16957;SDS011;8595;52.542;11.974;2022-12-13T11:14:53;44.10;;;33.57;;
16957;SDS011;8595;52.542;11.974;2022-12-13T11:17:23;37.63;;;28.97;;
16957;SDS011;8595;52.542;11.974;2022-12-13T11:19:52;34.53;;;26.57;;
16957;SDS011;8595;52.542;11.974;2022-12-13T11:22:22;31.73;;;25.37;;
16957;SDS011;8595;52.542;11.974;2022-12-13T11:24:51;35.07;;;27.17;;
16957;SDS011;8595;52.542;11.974;2022-12-13T11:30:29;35.43;;;26.07;;
16957;SDS011;8595;52.542;11.974;2022-12-13T11:33:06;36.83;;;27.42;;
16957;SDS011;8595;52.542;11.974;2022-12-13T11:35:42;33.90;;;26.87;;
16957;SDS011;8595;52.542;11.974;2022-12-13T11:38:21;31.20;;;26.33;;
16957;SDS011;8595;52.542;11.974;2022-12-13T11:40:54;35.08;;;26.02;;
16957;SDS011;8595;52.542;11.974;2022-12-13T11:43:25;33.75;;;27.30;;
16957;SDS011;8595;52.542;11.974;2022-12-13T11:45:59;33.72;;;28.08;;
16957;SDS011;8595;52.542;11.974;2022-12-13T11:48:33;35.67;;;28.83;;
16957;SDS011;8595;52.542;11.974;2022-12-13T11:51:07;34.22;;;27.40;;
16957;SDS011;8595;52.542;11.974;2022-12-13T11:53:39;32.28;;;25.50;;
16957;SDS011;8595;52.542;11.974;2022-12-13T11:56:18;31.73;;;23.70;;
16957;SDS011;8595;52.542;11.974;2022-12-13T11:58:52;32.90;;;27.63;;
16957;SDS011;8595;52.542;11.974;2022-12-13T12:01:26;34.35;;;26.02;;
16957;SDS011;8595;52.542;11.974;2022-12-13T12:04:00;35.90;;;29.57;;
16957;SDS011;8595;52.542;11.974;2022-12-13T12:06:34;32.95;;;26.08;;
16957;SDS011;8595;52.542;11.974;2022-12-13T12:09:06;34.85;;;28.25;;
16957;SDS011;8595;52.542;11.974;2022-12-13T12:11:41;33.22;;;27.50;;
16957;SDS011;8595;52.542;11.974;2022-12-13T12:14:13;35.15;;;30.05;;
16957;SDS011;8595;52.542;11.974;2022-12-13T12:16:46;32.67;;;24.30;;
16957;SDS011;8595;52.542;11.974;2022-12-13T12:19:17;32.72;;;25.17;;
16957;SDS011;8595;52.542;11.974;2022-12-13T12:21:50;29.33;;;22.20;;
16957;SDS011;8595;52.542;11.974;2022-12-13T12:24:28;31.33;;;26.85;;
16957;SDS011;8595;52.542;11.974;2022-12-13T12:27:08;30.30;;;24.17;;
16957;SDS011;8595;52.542;11.974;2022-12-13T12:29:48;28.35;;;22.92;;
16957;SDS011;8595;52.542;11.974;2022-12-13T12:32:30;33.22;;;26.02;;
16957;SDS011;8595;52.542;11.974;2022-12-13T12:35:01;32.45;;;26.88;;
16957;SDS011;8595;52.542;11.974;2022-12-13T12:37:44;33.85;;;26.35;;
16957;SDS011;8595;52.542;11.974;2022-12-13T12:40:31;32.17;;;26.10;;
16957;SDS011;8595;52.542;11.974;2022-12-13T12:43:15;35.03;;;27.10;;
16957;SDS011;8595;52.542;11.974;2022-12-13T12:45:56;32.75;;;26.92;;
16957;SDS011;8595;52.542;11.974;2022-12-13T12:48:41;31.83;;;24.77;;
16957;SDS011;8595;52.542;11.974;2022-12-13T12:51:26;31.27;;;26.73;;
16957;SDS011;8595;52.542;11.974;2022-12-13T12:54:07;30.77;;;24.75;;
16957;SDS011;8595;52.542;11.974;2022-12-13T12:56:47;32.20;;;27.13;;
16957;SDS011;8595;52.542;11.974;2022-12-13T12:59:21;28.35;;;21.40;;
16957;SDS011;8595;52.542;11.974;2022-12-13T13:01:58;32.77;;;24.60;;
16957;SDS011;8595;52.542;11.974;2022-12-13T13:04:31;35.03;;;25.00;;
16957;SDS011;8595;52.542;11.974;2022-12-13T13:07:03;28.90;;;22.17;;
16957;SDS011;8595;52.542;11.974;2022-12-13T13:09:35;33.63;;;25.98;;
16957;SDS011;8595;52.542;11.974;2022-12-13T13:12:04;27.03;;;21.00;;
16957;SDS011;8595;52.542;11.974;2022-12-13T13:14:33;30.47;;;24.73;;
16957;SDS011;8595;52.542;11.974;2022-12-13T13:20:14;28.93;;;21.90;;
16957;SDS011;8595;52.542;11.974;2022-12-13T13:22:43;30.50;;;21.17;;
16957;SDS011;8595;52.542;11.974;2022-12-13T13:25:20;34.00;;;25.47;;
16957;SDS011;8595;52.542;11.974;2022-12-13T13:27:59;37.00;;;22.90;;
16957;SDS011;8595;52.542;11.974;2022-12-13T13:30:29;46.37;;;29.03;;
16957;SDS011;8595;52.542;11.974;2022-12-13T13:32:56;34.60;;;21.83;;
16957;SDS011;8595;52.542;11.974;2022-12-13T13:44:33;30.83;;;21.60;;
16957;SDS011;8595;52.542;11.974;2022-12-13T13:47:28;35.23;;;22.60;;
16957;SDS011;8595;52.542;11.974;2022-12-13T13:50:08;37.80;;;21.07;;
16957;SDS011;8595;52.542;11.974;2022-12-13T13:53:15;36.87;;;22.27;;
16957;SDS011;8595;52.542;11.974;2022-12-13T13:59:25;34.93;;;22.93;;
16957;SDS011;8595;52.542;11.974;2022-12-13T14:02:31;36.77;;;21.20;;
16957;SDS011;8595;52.542;11.974;2022-12-13T14:05:28;30.83;;;19.40;;
16957;SDS011;8595;52.542;11.974;2022-12-13T14:08:34;30.60;;;19.27;;
16957;SDS011;8595;52.542;11.974;2022-12-13T14:11:15;36.00;;;22.33;;
16957;SDS011;8595;52.542;11.974;2022-12-13T14:19:57;38.63;;;25.40;;
16957;SDS011;8595;52.542;11.974;2022-12-13T14:22:43;38.77;;;21.57;;
16957;SDS011;8595;52.542;11.974;2022-12-13T14:25:24;37.30;;;21.27;;
16957;SDS011;8595;52.542;11.974;2022-12-13T14:28:08;41.17;;;23.80;;
16957;SDS011;8595;52.542;11.974;2022-12-13T14:30:40;38.93;;;21.07;;
16957;SDS011;8595;52.542;11.974;2022-12-13T14:33:11;36.67;;;23.87;;
16957;SDS011;8595;52.542;11.974;2022-12-13T14:35:48;37.67;;;23.80;;
16957;SDS011;8595;52.542;11.974;2022-12-13T14:38:18;44.33;;;27.40;;
16957;SDS011;8595;52.542;11.974;2022-12-13T14:40:49;41.90;;;24.70;;
16957;SDS011;8595;52.542;11.974;2022-12-13T14:43:22;34.90;;;21.83;;
16957;SDS011;8595;52.542;11.974;2022-12-13T14:45:52;33.53;;;21.07;;
16957;SDS011;8595;52.542;11.974;2022-12-13T14:48:20;38.57;;;22.30;;
16957;SDS011;8595;52.542;11.974;2022-12-13T14:50:48;38.07;;;22.13;;
16957;SDS011;8595;52.542;11.974;2022-12-13T14:53:20;36.40;;;20.83;;
16957;SDS011;8595;52.542;11.974;2022-12-13T14:56:02;33.80;;;21.50;;
16957;SDS011;8595;52.542;11.974;2022-12-13T14:58:31;37.77;;;21.50;;
16957;SDS011;8595;52.542;11.974;2022-12-13T15:00:58;35.33;;;21.33;;
16957;SDS011;8595;52.542;11.974;2022-12-13T15:03:26;37.93;;;22.43;;
16957;SDS011;8595;52.542;11.974;2022-12-13T15:05:53;38.60;;;22.60;;
16957;SDS011;8595;52.542;11.974;2022-12-13T15:08:23;46.30;;;27.03;;
16957;SDS011;8595;52.542;11.974;2022-12-13T15:10:51;49.20;;;27.03;;